createdAt,value
2024-01-10T00:01:09.036Z,56.91
2024-01-10T00:03:42.762Z,56.99
2024-01-10T00:06:16.744Z,56.97
2024-01-10T00:19:07.561Z,56.97
2024-01-10T00:21:47.464Z,56.75
2024-01-10T00:24:20.764Z,56.82
2024-01-10T00:26:54.472Z,56.67
2024-01-10T00:29:27.922Z,56.74
2024-01-10T00:45:43.488Z,56.94
2024-01-10T00:48:16.858Z,56.84
2024-01-10T00:50:50.466Z,56.67
2024-01-10T00:53:23.732Z,56.94
2024-01-10T00:55:57.500Z,56.55
2024-01-10T00:58:30.693Z,57.02
2024-01-10T01:01:06.555Z,56.76
2024-01-10T01:11:14.468Z,56.86
2024-01-10T01:13:54.501Z,56.67
2024-01-10T01:16:29.673Z,56.81
2024-01-10T01:19:03.504Z,56.66
2024-01-10T01:21:36.765Z,56.83
2024-01-10T01:24:10.483Z,56.89
2024-01-10T01:26:43.726Z,56.80
2024-01-10T01:39:34.440Z,57.08
2024-01-10T01:42:14.468Z,57.23
2024-01-10T01:44:47.700Z,57.24
2024-01-10T01:47:27.513Z,57.27
2024-01-10T01:50:01.028Z,57.07
2024-01-10T02:06:16.626Z,57.52
2024-01-10T02:08:50.238Z,57.57
2024-01-10T02:11:23.756Z,57.72
2024-01-10T02:13:59.235Z,57.54
2024-01-10T02:16:33.474Z,57.47
2024-01-10T02:19:19.668Z,57.88
2024-01-10T02:31:33.412Z,57.33
2024-01-10T02:34:13.629Z,57.25
2024-01-10T02:36:46.743Z,57.26
2024-01-10T02:39:20.448Z,57.07
2024-01-10T02:41:53.719Z,57.25
2024-01-10T02:44:27.427Z,57.47
2024-01-10T02:58:14.468Z,57.27
2024-01-10T03:00:47.724Z,57.72
2024-01-10T03:03:21.484Z,57.58
2024-01-10T03:05:54.764Z,57.52
2024-01-10T03:08:28.458Z,57.26
2024-01-10T03:11:01.717Z,57.72
2024-01-10T03:27:17.461Z,57.43
2024-01-10T03:29:50.680Z,57.30
2024-01-10T03:32:24.528Z,57.32
2024-01-10T03:34:57.732Z,57.43
2024-01-10T03:37:31.453Z,57.38
2024-01-10T03:40:06.177Z,57.73
2024-01-10T03:52:56.454Z,58.10
2024-01-10T03:55:36.444Z,58.01
2024-01-10T03:58:09.728Z,58.02
2024-01-10T04:00:43.465Z,58.00
2024-01-10T04:03:16.789Z,58.09
2024-01-10T04:05:50.559Z,57.86
2024-01-10T04:19:02.726Z,57.76
2024-01-10T04:21:36.787Z,58.02
2024-01-10T04:24:10.422Z,58.00
2024-01-10T04:26:43.685Z,58.12
2024-01-10T04:29:17.471Z,58.02
2024-01-10T04:31:51.135Z,58.05
2024-01-10T04:45:17.419Z,58.06
2024-01-10T04:47:57.489Z,57.82
2024-01-10T04:50:30.716Z,58.18
2024-01-10T04:53:04.477Z,58.14
2024-01-10T04:55:37.765Z,58.01
2024-01-10T04:58:11.447Z,58.10
2024-01-10T05:00:46.697Z,58.31
2024-01-10T05:13:35.396Z,58.17
2024-01-10T05:16:17.427Z,58.48
2024-01-10T05:18:50.668Z,58.27
2024-01-10T05:21:24.592Z,58.04
2024-01-10T05:23:57.580Z,58.16
2024-01-10T05:26:37.417Z,58.27
2024-01-10T05:39:49.400Z,58.26
2024-01-10T05:42:22.729Z,58.42
2024-01-10T05:44:56.430Z,57.90
2024-01-10T05:47:29.736Z,58.01
2024-01-10T05:50:03.488Z,58.12
2024-01-10T06:06:40.400Z,58.12
2024-01-10T06:09:20.405Z,58.07
2024-01-10T06:11:53.932Z,58.18
2024-01-10T06:14:27.439Z,58.16
2024-01-10T06:17:00.772Z,58.20
2024-01-10T06:19:34.410Z,58.27
2024-01-10T06:32:46.471Z,57.86
2024-01-10T06:35:19.658Z,57.33
2024-01-10T06:37:53.463Z,57.33
2024-01-10T06:40:26.652Z,57.96
2024-01-10T06:43:00.420Z,58.06
2024-01-10T06:45:33.665Z,57.83
2024-01-10T06:59:02.400Z,57.83
2024-01-10T07:01:42.471Z,58.22
2024-01-10T07:04:17.281Z,58.23
2024-01-10T07:06:59.377Z,58.24
2024-01-10T07:09:32.646Z,57.69
2024-01-10T07:12:06.381Z,57.53
2024-01-10T07:14:41.557Z,57.20
2024-01-10T07:27:30.379Z,57.50
2024-01-10T07:30:15.098Z,57.47
2024-01-10T07:32:48.769Z,57.67
2024-01-10T07:35:22.470Z,57.84
2024-01-10T07:37:55.879Z,57.57
2024-01-10T07:40:29.420Z,57.64
2024-01-10T07:53:41.418Z,57.00
2024-01-10T07:56:15.051Z,56.81
2024-01-10T07:58:48.418Z,56.81
2024-01-10T08:01:21.699Z,57.07
2024-01-10T08:03:55.435Z,56.91
2024-01-10T08:06:33.162Z,56.74
2024-01-10T08:19:31.403Z,58.08
2024-01-10T08:22:11.381Z,58.07
2024-01-10T08:24:45.086Z,58.12
2024-01-10T08:27:18.392Z,57.97
2024-01-10T08:29:51.641Z,58.29
2024-01-10T08:32:25.552Z,58.46
2024-01-10T08:35:00.703Z,58.49
2024-01-10T08:47:49.408Z,58.48
2024-01-10T08:50:31.422Z,58.46
2024-01-10T08:53:04.864Z,58.61
2024-01-10T08:55:39.444Z,58.64
2024-01-10T08:58:12.685Z,58.72
2024-01-10T09:00:46.418Z,58.71
2024-01-10T09:13:58.407Z,59.34
2024-01-10T09:16:31.685Z,59.18
2024-01-10T09:19:07.699Z,59.39
2024-01-10T09:21:42.655Z,59.15
2024-01-10T09:24:25.981Z,59.43
2024-01-10T09:27:02.992Z,60.00
2024-01-10T09:39:53.352Z,59.89
2024-01-10T09:42:34.853Z,59.97
2024-01-10T09:45:11.641Z,59.79
2024-01-10T09:48:01.445Z,60.27
2024-01-10T09:50:41.866Z,60.33
2024-01-10T09:53:30.459Z,60.22
2024-01-10T09:56:08.789Z,60.85
2024-01-10T10:06:18.497Z,61.68
2024-01-10T10:08:52.706Z,61.17
2024-01-10T10:11:28.460Z,61.00
2024-01-10T10:14:15.717Z,60.56
2024-01-10T10:16:56.410Z,60.81
2024-01-10T10:19:37.607Z,60.58
2024-01-10T10:33:05.607Z,61.30
2024-01-10T10:35:48.407Z,61.15
2024-01-10T10:38:30.577Z,61.28
2024-01-10T10:41:13.640Z,61.40
2024-01-10T10:43:49.575Z,61.79
2024-01-10T10:46:23.418Z,61.72
2024-01-10T10:59:50.343Z,63.04
2024-01-10T11:02:25.653Z,63.21
2024-01-10T11:05:09.429Z,63.66
2024-01-10T11:07:44.489Z,63.67
2024-01-10T11:10:23.358Z,63.75
2024-01-10T11:13:19.828Z,63.83
2024-01-10T11:16:46.365Z,63.77
2024-01-10T11:26:31.396Z,63.34
2024-01-10T11:29:13.398Z,63.63
2024-01-10T11:31:51.992Z,64.05
2024-01-10T11:34:32.385Z,64.18
2024-01-10T11:37:12.798Z,64.43
2024-01-10T11:39:53.358Z,64.42
2024-01-10T11:53:17.391Z,63.47
2024-01-10T11:55:52.095Z,63.30
2024-01-10T11:58:26.350Z,63.62
2024-01-10T12:01:00.657Z,63.58
2024-01-10T12:03:40.375Z,63.48
2024-01-10T12:06:20.279Z,63.33
2024-01-10T12:19:53.359Z,62.31
2024-01-10T12:22:35.337Z,62.13
2024-01-10T12:25:09.291Z,62.23
2024-01-10T12:27:49.358Z,62.36
2024-01-10T12:30:22.628Z,62.28
2024-01-10T12:32:58.389Z,62.02
2024-01-10T12:35:31.663Z,62.03
2024-01-10T12:48:23.381Z,61.99
2024-01-10T12:51:03.512Z,61.87
2024-01-10T12:53:39.438Z,61.92
2024-01-10T12:56:15.446Z,61.80
2024-01-10T12:58:48.631Z,61.93
2024-01-10T13:01:22.396Z,61.67
2024-01-10T13:14:34.354Z,61.66
2024-01-10T13:17:07.643Z,61.70
2024-01-10T13:19:41.378Z,61.66
2024-01-10T13:22:15.175Z,61.80
2024-01-10T13:24:49.388Z,61.61
2024-01-10T13:41:26.400Z,62.27
2024-01-10T13:44:06.442Z,62.63
2024-01-10T13:46:39.450Z,62.70
2024-01-10T13:49:19.474Z,63.07
2024-01-10T13:51:53.572Z,63.13
2024-01-10T13:54:27.418Z,63.06
2024-01-10T13:57:02.852Z,63.30
2024-01-10T14:06:58.341Z,63.19
2024-01-10T14:09:31.584Z,62.89
2024-01-10T14:12:05.322Z,62.69
2024-01-10T14:14:40.676Z,62.48
2024-01-10T14:17:14.368Z,62.29
2024-01-10T14:19:47.586Z,62.08
2024-01-10T14:36:03.483Z,61.16
2024-01-10T14:38:36.573Z,60.85
2024-01-10T14:41:10.336Z,60.44
2024-01-10T14:43:43.710Z,60.49
2024-01-10T14:46:17.338Z,60.24
2024-01-10T15:02:54.295Z,60.14
2024-01-10T15:05:34.400Z,60.53
2024-01-10T15:08:08.853Z,60.89
2024-01-10T15:10:42.337Z,60.94
2024-01-10T15:13:15.565Z,60.65
2024-01-10T15:15:49.353Z,61.07
2024-01-10T15:29:01.354Z,61.43
2024-01-10T15:31:34.643Z,61.40
2024-01-10T15:34:09.305Z,61.63
2024-01-10T15:36:43.044Z,61.56
2024-01-10T15:39:23.292Z,61.60
2024-01-10T15:41:56.612Z,61.56
2024-01-10T15:54:47.290Z,61.69
2024-01-10T15:57:27.316Z,61.45
2024-01-10T16:00:00.636Z,61.45
2024-01-10T16:02:34.629Z,61.36
2024-01-10T16:05:09.158Z,61.02
2024-01-10T16:21:24.353Z,61.78
2024-01-10T16:23:57.605Z,61.96
2024-01-10T16:26:31.401Z,61.97
2024-01-10T16:29:04.862Z,61.87
2024-01-10T16:31:38.294Z,61.99
2024-01-10T16:34:11.635Z,61.96
2024-01-10T16:36:47.297Z,61.89
2024-01-10T16:49:54.342Z,61.74
2024-01-10T16:52:23.176Z,61.67
2024-01-10T16:55:03.313Z,61.90
2024-01-10T16:57:36.533Z,61.86
2024-01-10T17:00:12.332Z,61.89
2024-01-10T17:14:07.403Z,61.75
2024-01-10T17:16:42.549Z,61.76
2024-01-10T17:19:16.388Z,61.48
2024-01-10T17:21:49.668Z,61.38
2024-01-10T17:24:23.312Z,61.05
2024-01-10T17:26:56.564Z,60.94
2024-01-10T17:29:30.399Z,61.09
2024-01-10T17:32:06.984Z,61.16
2024-01-10T17:41:44.449Z,61.07
2024-01-10T17:44:17.656Z,61.07
2024-01-10T17:46:58.493Z,60.98
2024-01-10T17:49:33.743Z,60.96
2024-01-10T17:52:07.283Z,61.00
2024-01-10T17:54:40.602Z,60.83
2024-01-10T18:10:12.540Z,60.76
2024-01-10T18:12:45.537Z,60.58
2024-01-10T18:15:19.290Z,60.32
2024-01-10T18:17:52.557Z,60.57
2024-01-10T18:20:26.339Z,60.48
2024-01-10T18:34:22.313Z,60.59
2024-01-10T18:36:57.485Z,60.52
2024-01-10T18:39:31.280Z,60.37
2024-01-10T18:42:05.408Z,60.52
2024-01-10T18:44:39.348Z,60.59
2024-01-10T18:47:12.648Z,60.61
2024-01-10T18:49:53.314Z,60.61
2024-01-10T19:03:05.349Z,60.28
2024-01-10T19:05:38.711Z,60.29
2024-01-10T19:08:12.417Z,60.42
2024-01-10T19:10:52.432Z,60.40
2024-01-10T19:13:32.473Z,60.27
2024-01-10T19:16:05.960Z,60.37
2024-01-10T19:28:56.295Z,59.45
2024-01-10T19:31:36.320Z,59.34
2024-01-10T19:34:09.580Z,59.57
2024-01-10T19:36:43.300Z,59.46
2024-01-10T19:39:16.656Z,59.51
2024-01-10T19:41:50.277Z,59.78
2024-01-10T19:55:02.284Z,59.51
2024-01-10T19:57:35.588Z,59.34
2024-01-10T20:00:11.697Z,59.48
2024-01-10T20:02:46.485Z,59.51
2024-01-10T20:05:20.333Z,59.32
2024-01-10T20:07:53.617Z,59.29
2024-01-10T20:10:29.283Z,59.32
2024-01-10T20:23:39.273Z,59.35
2024-01-10T20:26:15.870Z,59.24
2024-01-10T20:28:56.327Z,59.19
2024-01-10T20:31:29.549Z,59.26
2024-01-10T20:34:03.302Z,59.24
2024-01-10T20:36:36.478Z,59.51
2024-01-10T20:49:27.294Z,58.71
2024-01-10T20:52:07.280Z,58.08
2024-01-10T20:54:40.857Z,58.06
2024-01-10T20:57:21.275Z,57.42
2024-01-10T20:59:55.389Z,57.76
2024-01-10T21:16:12.273Z,58.29
2024-01-10T21:18:52.528Z,58.32
2024-01-10T21:21:33.566Z,58.49
2024-01-10T21:24:07.578Z,58.42
2024-01-10T21:26:41.327Z,58.59
2024-01-10T21:29:14.584Z,58.45
2024-01-10T21:31:50.291Z,58.50
2024-01-10T21:41:47.260Z,58.39
2024-01-10T21:44:27.285Z,58.28
2024-01-10T21:47:02.489Z,58.13
2024-01-10T21:49:36.347Z,58.39
2024-01-10T21:52:09.620Z,58.11
2024-01-10T21:54:43.288Z,57.96
2024-01-10T21:57:16.517Z,57.98
2024-01-10T22:10:07.213Z,58.39
2024-01-10T22:12:47.254Z,58.36
2024-01-10T22:15:20.550Z,58.33
2024-01-10T22:17:54.372Z,58.01
2024-01-10T22:20:27.697Z,58.06
2024-01-10T22:36:43.232Z,57.93
2024-01-10T22:39:16.508Z,58.29
2024-01-10T22:41:50.258Z,58.24
2024-01-10T22:44:23.629Z,58.35
2024-01-10T22:46:57.295Z,58.41
2024-01-10T22:49:30.517Z,58.40
2024-01-10T22:52:06.237Z,58.10
2024-01-10T23:02:00.319Z,58.50
2024-01-10T23:04:40.279Z,58.54
2024-01-10T23:07:15.413Z,58.20
2024-01-10T23:09:49.235Z,58.39
2024-01-10T23:12:22.463Z,58.24
2024-01-10T23:14:56.219Z,58.24
2024-01-10T23:28:47.439Z,58.02
2024-01-10T23:31:21.029Z,57.97
2024-01-10T23:33:54.299Z,57.80
2024-01-10T23:36:27.533Z,57.57
2024-01-10T23:39:01.257Z,57.43
2024-01-10T23:41:34.614Z,56.72
2024-01-10T23:57:50.320Z,57.38
